Time;durP1;ratioP1;P1;durP2;ratioP2;P2;SDS_P1;SDS_P2;PMS_P1;PMS_P2;Temp;Humidity;BMP_temperature;BMP_pressure;BME280_temperature;BME280_humidity;BME280_pressure;Samples;Min_cycle;Max_cycle;Signal;HPM_P1;HPM_P2
2022/07/10 00:01:56;;;;;;;26.08;18.42;;;;;;;-143.10;100.00;51186.88;4782119;29;20445;-70
2022/07/10 00:04:46;;;;;;;27.80;20.08;;;;;;;-143.10;100.00;51151.66;4781240;29;20797;-69
2022/07/10 00:07:36;;;;;;;25.85;18.55;;;;;;;-143.10;100.00;51196.69;4788211;29;20753;-69
2022/07/10 00:10:33;;;;;;;29.17;20.17;;;;;;;-143.10;100.00;51163.38;4765419;29;20086;-71
2022/07/10 00:13:29;;;;;;;32.15;20.00;;;;;;;-143.10;100.00;51159.47;4763779;30;20076;-69
2022/07/10 00:16:06;;;;;;;28.60;20.42;;;;;;;-143.10;100.00;51135.97;4748453;30;20072;-70
2022/07/10 00:18:55;;;;;;;30.00;20.83;;;;;;;-143.10;100.00;51167.31;4764605;30;20067;-70
2022/07/10 00:21:38;;;;;;;28.85;19.88;;;;;;;-143.10;100.00;51182.97;4763667;30;20497;-69
2022/07/10 00:24:34;;;;;;;28.98;20.58;;;;;;;-143.10;100.00;51190.81;4763781;30;20090;-66
2022/07/10 00:27:10;;;;;;;31.55;19.85;;;;;;;-143.10;100.00;51194.72;4763601;30;20123;-68
2022/07/10 00:30:01;;;;;;;30.15;19.92;;;;;;;-143.10;100.00;51182.97;4799711;29;20075;-68
2022/07/10 00:32:50;;;;;;;31.17;20.08;;;;;;;-143.10;100.00;51175.13;4783349;29;20047;-68
2022/07/10 00:35:33;;;;;;;27.88;18.27;;;;;;;-143.10;100.00;51151.66;4767897;30;20157;-69
2022/07/10 00:38:24;;;;;;;30.48;18.85;;;;;;;-143.10;100.00;51134.03;4780399;29;20500;-68
2022/07/10 00:41:06;;;;;;;28.80;17.27;;;;;;;-143.10;100.00;51208.41;4780626;29;20565;-69
2022/07/10 00:44:13;;;;;;;30.75;18.92;;;;;;;-143.10;100.00;51179.06;4781041;30;20140;-68
2022/07/10 00:46:56;;;;;;;27.27;18.73;;;;;;;-143.10;100.00;51147.72;4780824;30;21871;-68
2022/07/10 00:49:47;;;;;;;27.38;18.48;;;;;;;-143.10;100.00;51167.31;4780637;30;20316;-69
2022/07/10 00:52:44;;;;;;;24.25;16.95;;;;;;;-143.10;100.00;51163.38;4780348;30;20071;-69
2022/07/10 00:55:37;;;;;;;24.42;17.52;;;;;;;-143.10;100.00;51161.44;4781103;30;20058;-67
2022/07/10 00:58:27;;;;;;;25.10;17.50;;;;;;;-143.10;100.00;51147.72;4780504;29;20140;-69
2022/07/10 01:01:10;;;;;;;25.98;17.17;;;;;;;-143.10;100.00;51184.94;4780241;30;20078;-67
2022/07/10 01:04:00;;;;;;;26.08;16.80;;;;;;;-143.10;100.00;51165.34;4771898;30;20062;-67
2022/07/10 01:06:43;;;;;;;24.58;17.15;;;;;;;-143.10;100.00;51155.56;4780260;30;20520;-66
2022/07/10 01:09:40;;;;;;;25.52;17.42;;;;;;;-143.10;100.00;51171.22;4782529;29;20513;-68
2022/07/10 01:12:37;;;;;;;25.17;16.85;;;;;;;-143.10;100.00;51126.19;4780633;30;20074;-69
2022/07/10 01:15:14;;;;;;;24.38;17.10;;;;;;;-143.10;100.00;51167.31;4780323;30;20083;-69
2022/07/10 01:18:03;;;;;;;24.98;16.88;;;;;;;-143.10;100.00;51182.97;4790936;29;20074;-69
2022/07/10 01:20:46;;;;;;;25.13;17.83;;;;;;;-143.10;100.00;51159.47;4797252;29;20568;-69
2022/07/10 01:23:42;;;;;;;22.17;16.50;;;;;;;-143.10;100.00;51163.38;4798427;29;20512;-69
2022/07/10 01:26:20;;;;;;;23.40;16.33;;;;;;;-143.10;100.00;51155.56;4782000;29;20079;-69
2022/07/10 01:29:17;;;;;;;25.85;17.65;;;;;;;-143.10;100.00;51196.69;4797358;29;20086;-69
2022/07/10 01:31:53;;;;;;;25.33;16.40;;;;;;;-143.10;100.00;51128.16;4797619;29;20147;-69
2022/07/10 01:34:49;;;;;;;21.70;16.48;;;;;;;-143.10;100.00;51196.69;4768099;29;20144;-68
2022/07/10 01:37:25;;;;;;;27.73;15.98;;;;;;;-143.10;100.00;51147.72;4779537;30;20127;-69
2022/07/10 01:40:21;;;;;;;23.10;16.48;;;;;;;-143.10;100.00;51175.13;4778655;30;20117;-69
2022/07/10 01:42:58;;;;;;;26.80;16.70;;;;;;;-143.10;100.00;51196.69;4780232;30;20067;-68
2022/07/10 01:45:53;;;;;;;20.42;15.52;;;;;;;-143.10;100.00;51186.88;4779808;30;20067;-69
2022/07/10 01:48:30;;;;;;;23.73;15.98;;;;;;;-143.10;100.00;51175.13;4780209;30;20504;-69
2022/07/10 01:51:20;;;;;;;23.90;15.60;;;;;;;-143.10;100.00;51186.88;4764553;30;20079;-68
2022/07/10 01:54:03;;;;;;;25.45;16.25;;;;;;;-143.10;100.00;51175.13;4781400;30;20071;-70
2022/07/10 01:56:53;;;;;;;26.20;15.55;;;;;;;-143.10;100.00;51182.97;4779814;29;20783;-69
2022/07/10 01:59:35;;;;;;;24.70;15.50;;;;;;;-143.10;100.00;51151.66;4778971;29;20288;-69
2022/07/10 02:02:25;;;;;;;23.80;16.52;;;;;;;-143.10;100.00;51182.97;4787983;29;20097;-69
2022/07/10 02:05:08;;;;;;;22.92;16.25;;;;;;;-143.10;100.00;51175.13;4779386;30;20516;-69
2022/07/10 02:07:59;;;;;;;24.38;16.58;;;;;;;-143.10;100.00;51143.81;4779651;30;20573;-69
2022/07/10 02:10:41;;;;;;;21.90;14.93;;;;;;;-143.10;100.00;51159.47;4784930;29;20393;-69
2022/07/10 02:13:32;;;;;;;23.25;16.25;;;;;;;-143.10;100.00;51132.06;4783106;29;20090;-68
2022/07/10 02:16:14;;;;;;;24.85;14.90;;;;;;;-143.10;100.00;51175.13;4781535;29;20071;-68
2022/07/10 02:19:11;;;;;;;23.38;15.98;;;;;;;-143.10;100.00;51116.41;4763043;30;20583;-68
2022/07/10 02:21:47;;;;;;;23.77;15.45;;;;;;;-143.10;100.00;51155.56;4762894;30;20516;-68
2022/07/10 02:24:37;;;;;;;22.67;15.18;;;;;;;-143.10;100.00;51151.66;4763352;30;21117;-68
2022/07/10 02:27:19;;;;;;;23.70;15.80;;;;;;;-143.10;100.00;51135.97;4765082;30;20079;-68
2022/07/10 02:30:10;;;;;;;22.23;15.13;;;;;;;-143.10;100.00;51177.09;4764717;30;20453;-68
2022/07/10 02:32:53;;;;;;;21.83;14.30;;;;;;;-143.10;100.00;51116.41;4764425;30;20084;-68
2022/07/10 02:35:50;;;;;;;22.83;14.82;;;;;;;-143.10;100.00;51143.81;4764086;30;20278;-68
2022/07/10 02:38:27;;;;;;;21.38;15.10;;;;;;;-143.10;100.00;51169.25;4763371;30;20250;-68
2022/07/10 02:41:17;;;;;;;26.63;15.68;;;;;;;-143.10;100.00;51112.50;4767546;29;20078;-69
2022/07/10 02:44:00;;;;;;;26.35;14.25;;;;;;;-143.10;100.00;51147.72;4783247;30;20067;-69
2022/07/10 02:46:56;;;;;;;23.92;14.90;;;;;;;-143.10;100.00;51124.22;4769243;30;20564;-68
2022/07/10 02:49:33;;;;;;;29.77;15.93;;;;;;;-143.10;100.00;51141.84;4782580;30;20499;-68
2022/07/10 02:52:22;;;;;;;25.35;16.30;;;;;;;-143.10;100.00;51181.00;4768940;30;20748;-67
2022/07/10 02:55:05;;;;;;;24.40;15.88;;;;;;;-143.10;100.00;51116.41;4798571;29;20179;-69
2022/07/10 02:57:55;;;;;;;26.55;15.25;;;;;;;-143.10;100.00;51134.03;4767852;29;20092;-68
2022/07/10 03:00:41;;;;;;;22.17;16.00;;;;;;;-143.10;100.00;51079.19;4794673;29;20410;-67
2022/07/10 03:03:30;;;;;;;28.73;16.23;;;;;;;-143.10;100.00;51128.16;4789894;29;20112;-67
2022/07/10 03:06:13;;;;;;;26.65;16.25;;;;;;;-143.10;100.00;51165.34;4794932;29;20074;-66
2022/07/10 03:09:03;;;;;;;24.00;15.82;;;;;;;-143.10;100.00;51139.91;4795485;29;20070;-69
2022/07/10 03:11:52;;;;;;;26.80;15.95;;;;;;;-143.10;100.00;51145.78;4797321;29;20047;-68
2022/07/10 03:14:42;;;;;;;32.75;16.65;;;;;;;-143.10;100.00;51145.78;4789221;29;20151;-67
2022/07/10 03:17:25;;;;;;;23.33;15.43;;;;;;;-143.10;100.00;51108.56;4781588;29;20095;-70
2022/07/10 03:20:15;;;;;;;21.55;15.38;;;;;;;-143.10;100.00;51139.91;4781751;29;20504;-69
2022/07/10 03:22:58;;;;;;;25.83;16.90;;;;;;;-143.10;100.00;51145.78;4781427;29;20167;-67
2022/07/10 03:25:48;;;;;;;23.95;15.50;;;;;;;-143.10;100.00;51114.44;4789482;29;20411;-68
2022/07/10 03:28:38;;;;;;;25.75;16.83;;;;;;;-143.10;100.00;51151.66;4785907;29;20087;-69
2022/07/10 03:31:28;;;;;;;23.85;16.80;;;;;;;-143.10;100.00;51151.66;4778133;29;20083;-69
2022/07/10 03:34:10;;;;;;;24.67;16.65;;;;;;;-143.10;100.00;51157.50;4780330;29;20149;-69
2022/07/10 03:37:00;;;;;;;24.83;16.13;;;;;;;-143.10;100.00;51155.56;4779209;29;20079;-69
2022/07/10 03:39:43;;;;;;;29.25;17.15;;;;;;;-143.10;100.00;51122.28;4781822;29;20200;-69
2022/07/10 03:42:33;;;;;;;23.77;15.75;;;;;;;-143.10;100.00;51147.72;4782072;29;20493;-69
2022/07/10 03:45:16;;;;;;;24.42;15.48;;;;;;;-143.10;100.00;51151.66;4780329;29;20081;-68
2022/07/10 03:48:06;;;;;;;24.52;16.98;;;;;;;-143.10;100.00;51137.94;4773147;29;20095;-69
2022/07/10 03:50:48;;;;;;;24.17;15.45;;;;;;;-143.10;100.00;51163.38;4779234;29;20485;-69
2022/07/10 03:53:38;;;;;;;27.55;16.40;;;;;;;-143.10;100.00;51128.16;4766475;30;20071;-69
2022/07/10 03:59:35;;;;;;;29.27;17.08;;;;;;;-143.10;100.00;51157.50;4782029;30;20075;-69
2022/07/10 04:02:11;;;;;;;24.17;15.95;;;;;;;-143.10;100.00;51177.09;4778666;29;20067;-68
2022/07/10 04:05:07;;;;;;;25.35;17.33;;;;;;;-143.10;100.00;51118.34;4775852;29;20079;-69
2022/07/10 04:07:44;;;;;;;24.75;16.95;;;;;;;-143.10;100.00;51161.44;4773797;29;20382;-68
2022/07/10 04:10:33;;;;;;;30.48;16.83;;;;;;;-143.10;100.00;51118.34;4780529;30;20263;-69
2022/07/10 04:13:22;;;;;;;28.15;17.02;;;;;;;-143.10;100.00;51155.56;4785187;29;20077;-68
2022/07/10 04:16:15;;;;;;;28.27;18.25;;;;;;;-143.10;100.00;51132.06;4781061;29;20078;-68
2022/07/10 04:19:04;;;;;;;31.20;19.40;;;;;;;-143.10;100.00;51159.47;4763789;30;20144;-68
2022/07/10 04:21:54;;;;;;;28.10;18.75;;;;;;;-143.10;100.00;51161.44;4753094;30;20496;-65
2022/07/10 04:24:36;;;;;;;32.95;19.35;;;;;;;-143.10;100.00;51135.97;4780241;29;21848;-72
2022/07/10 04:27:33;;;;;;;29.58;18.25;;;;;;;-143.10;100.00;51132.06;4774862;29;20087;-69
2022/07/10 04:30:10;;;;;;;29.13;18.67;;;;;;;-143.10;100.00;51157.50;4780498;29;20082;-68
2022/07/10 04:32:59;;;;;;;26.77;18.23;;;;;;;-143.10;100.00;51135.97;4776720;29;20454;-70
2022/07/10 04:35:49;;;;;;;33.65;19.10;;;;;;;-143.10;100.00;51143.81;4772934;29;20371;-67
2022/07/10 04:38:39;;;;;;;31.17;19.00;;;;;;;-143.10;100.00;51159.47;4778004;29;20493;-67
2022/07/10 04:41:29;;;;;;;31.63;18.52;;;;;;;-143.10;100.00;51128.16;4769665;30;20074;-64
2022/07/10 04:44:12;;;;;;;30.83;17.77;;;;;;;-143.10;100.00;51122.28;4778498;29;20075;-68
2022/07/10 04:47:02;;;;;;;28.33;18.00;;;;;;;-143.10;100.00;51153.59;4770236;29;20075;-66
2022/07/10 04:49:45;;;;;;;28.88;19.23;;;;;;;-143.10;100.00;51147.72;4778328;29;20245;-68
2022/07/10 04:52:36;;;;;;;28.25;18.05;;;;;;;-143.10;100.00;51165.34;4790922;29;20508;-67
2022/07/10 04:55:18;;;;;;;28.60;19.25;;;;;;;-143.10;100.00;51161.44;4780856;29;20075;-66
2022/07/10 04:58:07;;;;;;;30.75;19.27;;;;;;;-143.10;100.00;51106.63;4764294;30;20072;-67
2022/07/10 05:00:50;;;;;;;31.77;19.27;;;;;;;-143.10;100.00;51155.56;4776086;29;20078;-67
2022/07/10 05:03:39;;;;;;;26.98;19.20;;;;;;;-143.10;100.00;51104.66;4772838;29;20487;-66
2022/07/10 05:06:22;;;;;;;30.92;20.10;;;;;;;-143.10;100.00;51110.53;4769291;29;20074;-65
2022/07/10 05:09:12;;;;;;;27.67;18.63;;;;;;;-143.10;100.00;51134.03;4772250;29;20074;-63
2022/07/10 05:11:55;;;;;;;29.30;18.40;;;;;;;-143.10;98.55;51139.91;4781050;29;20144;-67
2022/07/10 05:14:51;;;;;;;28.20;19.90;;;;;;;-143.10;94.95;51077.25;4779656;29;20281;-64
2022/07/10 05:17:40;;;;;;;26.27;18.75;;;;;;;-143.10;97.79;51118.34;4767780;29;20365;-66
2022/07/10 05:20:30;;;;;;;35.00;20.40;;;;;;;-143.10;94.02;51116.41;4776225;30;20071;-64
2022/07/10 05:23:20;;;;;;;25.92;20.13;;;;;;;-143.10;93.87;51147.72;4757711;29;20154;-66
2022/07/10 05:26:10;;;;;;;29.67;20.42;;;;;;;-143.10;93.89;51106.63;4767293;29;21500;-67
2022/07/10 05:28:53;;;;;;;25.65;17.60;;;;;;;-143.10;92.11;51104.66;4777802;29;20074;-68
2022/07/10 05:31:42;;;;;;;29.05;19.10;;;;;;;-143.10;87.14;51077.25;4777088;29;20622;-67
2022/07/10 05:34:25;;;;;;;26.85;17.80;;;;;;;-143.10;84.70;51085.06;4782189;29;20678;-65
2022/07/10 05:37:14;;;;;;;28.85;16.73;;;;;;;-143.10;90.01;51118.34;4778399;29;20152;-69
2022/07/10 05:40:05;;;;;;;29.05;19.25;;;;;;;-143.10;89.08;51094.88;4779039;29;20104;-63
2022/07/10 05:42:47;;;;;;;30.13;19.15;;;;;;;-143.10;87.90;51104.66;4777050;29;20154;-65
2022/07/10 05:45:44;;;;;;;30.45;19.65;;;;;;;-143.10;90.73;51126.19;4768071;29;20719;-68
2022/07/10 05:48:25;;;;;;;32.92;21.90;;;;;;;-143.10;86.91;51114.44;4773811;29;20075;-68
2022/07/10 05:51:14;;;;;;;31.75;21.90;;;;;;;-143.10;86.24;51102.69;4782016;29;20074;-68
2022/07/10 05:54:12;;;;;;;29.98;22.05;;;;;;;-143.10;89.16;51079.19;4789970;29;20085;-64
2022/07/10 05:57:03;;;;;;;25.13;20.38;;;;;;;-143.10;90.69;51092.91;4744211;29;20131;-66
2022/07/10 05:59:46;;;;;;;28.27;22.27;;;;;;;-143.10;89.14;51100.75;4762561;30;20237;-66
2022/07/10 06:02:44;;;;;;;27.38;21.23;;;;;;;-143.10;87.90;51108.56;4762864;30;20475;-66
2022/07/10 06:05:27;;;;;;;27.73;21.58;;;;;;;-143.10;88.34;51102.69;4768788;30;20090;-65
2022/07/10 06:08:18;;;;;;;25.58;20.95;;;;;;;-143.10;90.02;51128.16;4744110;30;20593;-66
2022/07/10 06:11:01;;;;;;;29.45;22.70;;;;;;;-143.10;89.10;51108.56;4767327;29;20110;-64
2022/07/10 06:13:59;;;;;;;27.92;21.23;;;;;;;-143.10;89.34;51102.69;4766798;29;20078;-65
2022/07/10 06:16:49;;;;;;;31.90;21.83;;;;;;;-143.10;85.63;51075.28;4771260;29;20420;-64
2022/07/10 06:19:32;;;;;;;25.75;20.67;;;;;;;-143.10;85.00;51100.75;4769271;30;20063;-65
2022/07/10 06:22:31;;;;;;;27.60;21.65;;;;;;;-143.10;83.13;51112.50;4767635;29;20083;-65
2022/07/10 06:25:09;;;;;;;28.90;22.63;;;;;;;-143.10;84.48;51128.16;4763786;30;20145;-65
2022/07/10 06:28:04;;;;;;;30.02;22.35;;;;;;;-143.10;89.22;51106.63;4764382;30;20496;-67
2022/07/10 06:30:40;;;;;;;31.55;23.75;;;;;;;-143.10;87.03;51108.56;4761703;30;20603;-66
2022/07/10 06:33:32;;;;;;;30.08;23.30;;;;;;;-143.10;91.67;51104.66;4767983;30;20079;-65
2022/07/10 06:36:15;;;;;;;32.28;23.25;;;;;;;-143.10;92.02;51134.03;4767438;30;20127;-66
2022/07/10 06:39:07;;;;;;;27.67;22.33;;;;;;;-143.10;93.54;51116.41;4774280;29;20485;-66
2022/07/10 06:41:57;;;;;;;27.85;23.40;;;;;;;-143.10;89.75;51114.44;4769174;29;20163;-66
2022/07/10 06:44:48;;;;;;;32.72;24.02;;;;;;;-143.10;92.76;51104.66;4778552;29;20558;-66
2022/07/10 06:47:58;;;;;;;44.47;22.65;;;;;;;-143.10;94.72;51104.66;4777930;30;20078;-69
2022/07/10 06:50:42;;;;;;;30.88;22.88;;;;;;;-143.10;93.54;51092.91;4761031;30;20362;-66
2022/07/10 06:56:27;;;;;;;28.10;24.27;;;;;;;-143.10;88.06;51089.00;4741768;27;8600878;-67
2022/07/10 07:01:29;;;;;;;31.97;24.33;;;;;;;33.70;64.98;97473.16;4771953;27;8808662;-69
2022/07/10 07:04:23;;;;;;;26.92;22.70;;;;;;;33.52;63.84;97470.34;5087280;28;20036;-68
2022/07/10 07:06:59;;;;;;;28.08;23.05;;;;;;;33.79;63.10;97470.75;5081211;28;20464;-67
2022/07/10 07:09:55;;;;;;;25.55;21.92;;;;;;;33.82;62.10;97469.16;5086976;28;20052;-66
2022/07/10 07:12:30;;;;;;;27.17;22.92;;;;;;;33.54;61.74;97470.75;5089394;28;20372;-66
2022/07/10 07:15:22;;;;;;;27.70;21.67;;;;;;;33.72;61.74;97465.97;5087415;28;20048;-64
2022/07/10 07:18:12;;;;;;;26.90;20.70;;;;;;;33.62;61.45;97460.41;5088408;28;20075;-65
2022/07/10 07:24:02;;;;;;;27.67;21.58;;;;;;;33.64;62.39;97453.28;5088893;28;20246;-65
2022/07/10 07:26:48;;;;;;;25.65;22.50;;;;;;;33.54;62.36;97459.63;5094171;28;20129;-64
2022/07/10 07:29:37;;;;;;;34.80;22.30;;;;;;;33.38;64.13;97462.00;5086016;28;20121;-64
2022/07/10 07:32:18;;;;;;;28.67;20.80;;;;;;;33.55;63.37;97464.78;5086261;28;20298;-64
2022/07/10 07:35:09;;;;;;;25.75;20.83;;;;;;;34.11;63.57;97454.00;5087500;28;20044;-64
2022/07/10 07:37:57;;;;;;;26.70;21.55;;;;;;;33.49;62.37;97451.66;5090942;28;20079;-65
2022/07/10 07:40:40;;;;;;;21.52;18.65;;;;;;;33.58;62.56;97463.19;5092656;28;20067;-64
2022/07/10 07:43:28;;;;;;;23.27;18.38;;;;;;;33.74;61.29;97466.41;5091161;28;20051;-65
2022/07/10 07:46:17;;;;;;;22.13;18.83;;;;;;;33.74;62.66;97466.41;5085399;28;20048;-65
2022/07/10 07:49:00;;;;;;;25.15;18.73;;;;;;;33.76;63.12;97471.56;5082605;28;20051;-64
2022/07/10 07:51:49;;;;;;;25.83;19.25;;;;;;;33.71;61.65;97480.31;5081634;28;20048;-65
2022/07/10 07:54:37;;;;;;;25.25;19.65;;;;;;;33.46;62.16;97469.97;5078844;28;20483;-63
2022/07/10 07:57:20;;;;;;;23.08;20.70;;;;;;;33.48;61.87;97473.13;5080075;28;20496;-64
2022/07/10 08:00:22;;;;;;;23.88;20.13;;;;;;;33.21;63.69;97486.63;5083504;28;20048;-66
2022/07/10 08:03:16;;;;;;;24.23;18.95;;;;;;;33.41;64.47;97494.59;5084361;28;20044;-65
2022/07/10 08:06:24;;;;;;;25.45;20.60;;;;;;;33.31;63.06;97494.16;5085941;28;20055;-64
2022/07/10 08:09:14;;;;;;;22.65;19.55;;;;;;;33.14;65.02;97495.72;5080744;28;20056;-66
2022/07/10 08:12:04;;;;;;;22.73;19.58;;;;;;;33.14;63.62;97494.94;5080410;28;20536;-65
2022/07/10 08:14:46;;;;;;;22.90;19.42;;;;;;;33.08;63.92;97496.50;5069369;28;20048;-65
2022/07/10 08:17:34;;;;;;;21.45;19.20;;;;;;;33.13;63.93;97496.13;5065434;28;20708;-64
2022/07/10 08:20:24;;;;;;;25.50;18.52;;;;;;;33.23;63.24;97495.34;5066297;28;20098;-65
2022/07/10 08:23:05;;;;;;;23.08;19.25;;;;;;;32.97;64.26;97486.13;5061910;28;20794;-64
2022/07/10 08:25:55;;;;;;;25.60;19.05;;;;;;;33.04;63.84;97488.16;5063177;28;20072;-65
2022/07/10 08:28:37;;;;;;;21.85;19.40;;;;;;;33.02;63.99;97492.47;5062591;28;20049;-65
2022/07/10 08:31:25;;;;;;;20.95;18.75;;;;;;;33.26;63.38;97477.88;5066292;28;20145;-64
2022/07/10 08:34:07;;;;;;;19.88;17.80;;;;;;;33.34;62.43;97479.50;5042501;28;20051;-65
2022/07/10 08:36:57;;;;;;;19.63;17.65;;;;;;;33.35;62.85;97469.94;5035649;28;20060;-65
2022/07/10 08:39:39;;;;;;;19.60;17.55;;;;;;;33.57;62.54;97472.72;5037833;28;20084;-65
2022/07/10 08:42:31;;;;;;;19.83;17.35;;;;;;;33.94;62.72;97468.75;5034709;28;20056;-66
2022/07/10 08:45:14;;;;;;;20.25;17.42;;;;;;;34.11;60.29;97465.16;5033202;28;20053;-64
2022/07/10 08:48:08;;;;;;;18.65;16.85;;;;;;;34.13;61.54;97461.97;5044715;28;20110;-65
2022/07/10 08:51:05;;;;;;;26.58;17.73;;;;;;;33.83;62.45;97465.19;5047190;28;20110;-65
2022/07/10 08:53:49;;;;;;;22.02;17.88;;;;;;;34.06;62.26;97461.97;5049625;28;20059;-64
2022/07/10 08:56:38;;;;;;;18.92;16.92;;;;;;;33.79;61.38;97453.28;5046621;28;20053;-64
2022/07/10 08:59:29;;;;;;;19.05;17.05;;;;;;;33.85;62.20;97446.09;5041083;28;22521;-64
2022/07/10 09:02:17;;;;;;;18.83;16.65;;;;;;;34.15;62.17;97442.88;5041782;28;20057;-64
2022/07/10 09:05:08;;;;;;;22.80;15.82;;;;;;;33.99;60.50;97437.72;5047063;28;20106;-64
2022/07/10 09:07:53;;;;;;;19.77;17.67;;;;;;;33.87;60.83;97433.38;5047415;28;20052;-64
2022/07/10 09:10:42;;;;;;;20.48;17.52;;;;;;;34.22;62.12;97426.13;5046830;28;20124;-63
2022/07/10 09:13:24;;;;;;;19.90;16.85;;;;;;;33.96;61.42;97430.19;5042700;28;20157;-64
2022/07/10 09:16:27;;;;;;;19.92;17.85;;;;;;;34.03;60.85;97435.75;5046800;28;20053;-64
2022/07/10 09:19:27;;;;;;;21.95;17.50;;;;;;;34.20;59.94;97431.31;5048122;28;20049;-66
2022/07/10 09:22:16;;;;;;;20.55;17.48;;;;;;;33.99;60.76;97423.78;5055395;28;20671;-65
2022/07/10 09:24:59;;;;;;;19.45;17.17;;;;;;;34.09;60.54;97425.78;5045082;28;20059;-64
2022/07/10 09:27:54;;;;;;;21.75;17.85;;;;;;;34.07;61.05;97425.38;5037035;28;20041;-65
2022/07/10 09:30:43;;;;;;;23.75;17.98;;;;;;;33.79;61.64;97426.25;5034723;28;20049;-65
2022/07/10 09:33:39;;;;;;;24.73;18.63;;;;;;;33.70;62.23;97421.06;5037107;28;20056;-64
2022/07/10 09:36:16;;;;;;;25.00;16.95;;;;;;;33.87;61.00;97415.88;5042936;28;20499;-63
2022/07/10 09:39:06;;;;;;;21.33;19.10;;;;;;;33.48;62.45;97420.28;5038511;28;20052;-65
2022/07/10 09:41:48;;;;;;;20.98;18.63;;;;;;;33.79;62.37;97414.31;5045495;28;20049;-66
2022/07/10 09:44:43;;;;;;;22.00;19.08;;;;;;;33.62;62.35;97394.44;5043619;28;20056;-64
2022/07/10 09:47:23;;;;;;;21.77;19.45;;;;;;;33.90;61.64;97393.63;5025544;28;20457;-67
2022/07/10 09:50:33;;;;;;;21.10;18.83;;;;;;;33.96;62.56;97396.00;5039480;28;20045;-64
2022/07/10 09:53:23;;;;;;;23.75;20.88;;;;;;;33.74;61.93;97391.28;5026367;28;20064;-65
2022/07/10 09:56:13;;;;;;;24.95;19.83;;;;;;;33.94;62.34;97388.03;5027522;28;20137;-65
2022/07/10 09:58:58;;;;;;;25.08;20.10;;;;;;;33.50;63.34;97387.31;5045351;28;20106;-64
2022/07/10 10:01:55;;;;;;;25.90;20.48;;;;;;;33.31;62.76;97391.28;5045139;28;20049;-64
2022/07/10 10:04:51;;;;;;;24.98;19.45;;;;;;;33.05;62.93;97394.44;5039147;28;20136;-65
2022/07/10 10:07:40;;;;;;;20.77;17.42;;;;;;;33.08;63.81;97385.31;5040829;28;20144;-64
2022/07/10 10:10:31;;;;;;;22.65;17.67;;;;;;;33.15;62.20;97388.09;5045739;28;20114;-65
2022/07/10 10:13:21;;;;;;;19.73;16.83;;;;;;;33.16;61.68;97387.72;5052840;28;20052;-65
2022/07/10 10:16:04;;;;;;;18.90;15.63;;;;;;;33.22;61.87;97387.31;5045262;28;20049;-64
2022/07/10 10:21:57;;;;;;;20.10;16.58;;;;;;;33.18;63.52;97387.31;5043518;28;20349;-67
2022/07/10 10:24:54;;;;;;;19.77;16.98;;;;;;;33.25;64.64;97381.75;5044182;28;20713;-65
2022/07/10 10:27:29;;;;;;;18.45;16.45;;;;;;;33.39;62.88;97374.59;5043119;28;20056;-67
2022/07/10 10:30:26;;;;;;;20.27;16.88;;;;;;;33.32;61.64;97378.97;5045720;28;20479;-64
2022/07/10 10:33:40;;;;;;;20.55;17.33;;;;;;;33.37;62.79;97379.78;5592219;22;20441;-66
2022/07/10 10:36:45;;;;;;;18.45;16.05;;;;;;;33.40;63.74;97376.19;5008980;28;20069;-66
2022/07/10 10:39:21;;;;;;;18.48;16.52;;;;;;;33.37;63.83;97369.44;5033377;28;20431;-65
2022/07/10 10:42:34;;;;;;;21.05;15.90;;;;;;;33.28;61.79;97375.38;5056850;28;20110;-65
2022/07/10 10:45:41;;;;;;;17.85;14.40;;;;;;;33.41;62.07;97366.66;5047225;28;20613;-68
2022/07/10 10:48:31;;;;;;;15.60;13.98;;;;;;;33.53;61.36;97369.81;5044304;28;20052;-67
2022/07/10 10:51:19;;;;;;;17.67;15.77;;;;;;;33.30;62.44;97361.88;5025852;28;20096;-67
2022/07/10 10:54:05;;;;;;;19.13;15.85;;;;;;;33.36;61.90;97359.50;5030930;28;20624;-67
2022/07/10 10:57:19;;;;;;;18.10;16.20;;;;;;;33.49;63.66;97369.00;5056136;28;20068;-67
2022/07/10 11:00:08;;;;;;;20.02;16.98;;;;;;;33.51;62.26;97363.06;5050490;28;20055;-67
2022/07/10 11:03:22;;;;;;;24.48;17.77;;;;;;;33.14;62.94;97369.84;5044993;28;20063;-67
2022/07/10 11:06:06;;;;;;;17.35;15.65;;;;;;;33.29;63.93;97363.09;5025761;28;20049;-67
2022/07/10 11:08:56;;;;;;;19.65;15.40;;;;;;;33.30;61.86;97361.88;5033616;28;20060;-67
2022/07/10 11:11:39;;;;;;;16.85;15.13;;;;;;;33.46;62.56;97367.06;5047420;28;20053;-67
2022/07/10 11:14:30;;;;;;;19.95;16.58;;;;;;;33.50;62.51;97364.25;5044265;28;20053;-65
2022/07/10 11:17:12;;;;;;;21.60;16.33;;;;;;;33.35;63.27;97366.25;5049613;28;20041;-67
2022/07/10 11:20:01;;;;;;;19.35;16.38;;;;;;;33.07;63.08;97378.16;5047135;28;20099;-68
2022/07/10 11:22:52;;;;;;;21.55;16.58;;;;;;;33.02;63.20;97381.31;5048433;28;20472;-66
2022/07/10 11:26:00;;;;;;;19.25;16.33;;;;;;;32.85;63.26;97375.34;5048855;28;20103;-67
2022/07/10 11:28:41;;;;;;;21.83;15.40;;;;;;;32.93;63.70;97368.59;5044314;28;20132;-67
2022/07/10 11:31:44;;;;;;;20.63;16.98;;;;;;;32.87;63.37;97364.63;5039096;28;20122;-66
2022/07/10 11:34:36;;;;;;;19.98;15.98;;;;;;;32.90;63.66;97374.16;5044659;28;20067;-67
2022/07/10 11:37:29;;;;;;;17.10;15.30;;;;;;;32.93;62.77;97362.25;5044033;28;20049;-67
2022/07/10 11:40:13;;;;;;;19.00;16.10;;;;;;;33.06;60.50;97363.47;5045106;28;20045;-73
2022/07/10 11:43:05;;;;;;;22.85;17.13;;;;;;;32.93;62.65;97365.81;5053828;28;20049;-69
2022/07/10 11:45:48;;;;;;;17.87;15.97;;;;;;;32.96;58.95;97365.06;4712152;28;10001081;-70
2022/07/10 11:48:45;;;;;;;19.30;17.00;;;;;;;33.01;60.77;97363.84;5045886;28;20066;-70
2022/07/10 11:51:30;;;;;;;21.08;16.73;;;;;;;33.10;61.22;97363.47;5051082;28;22350;-70
2022/07/10 11:54:23;;;;;;;20.42;17.33;;;;;;;33.07;62.67;97365.03;5030954;28;20098;-73
2022/07/10 11:57:17;;;;;;;20.83;17.92;;;;;;;32.94;62.86;97361.88;5051227;28;20048;-72
2022/07/10 11:59:53;;;;;;;22.10;16.10;;;;;;;33.01;62.43;97355.50;5033737;28;20045;-74
2022/07/10 12:02:51;;;;;;;27.20;17.75;;;;;;;32.93;64.81;97359.47;5045980;28;20045;-68
2022/07/10 12:05:33;;;;;;;20.55;18.35;;;;;;;32.91;64.28;97357.09;5042153;28;20049;-69
2022/07/10 12:08:29;;;;;;;24.35;18.92;;;;;;;32.88;63.97;97352.31;5049202;28;20080;-71
2022/07/10 12:11:15;;;;;;;19.40;17.27;;;;;;;32.95;63.77;97354.31;5046222;28;20565;-72
2022/07/10 12:14:23;;;;;;;22.70;18.20;;;;;;;32.83;63.64;97363.84;5041924;28;20509;-72
2022/07/10 12:17:00;;;;;;;22.75;19.33;;;;;;;32.85;64.85;97367.03;5044928;28;20089;-72
2022/07/10 12:19:57;;;;;;;23.85;19.67;;;;;;;32.88;65.08;97362.66;5046577;28;20486;-72
2022/07/10 12:22:32;;;;;;;26.83;19.73;;;;;;;32.87;64.36;97353.53;5031130;28;20052;-72
2022/07/10 12:25:27;;;;;;;22.65;19.23;;;;;;;32.75;65.09;97354.72;5047129;28;20053;-72
2022/07/10 12:28:03;;;;;;;27.17;19.67;;;;;;;32.68;64.57;97354.69;5046633;28;20080;-72
2022/07/10 12:30:59;;;;;;;29.88;18.85;;;;;;;32.63;64.83;97348.72;5047728;28;20118;-73
2022/07/10 12:33:46;;;;;;;24.83;18.48;;;;;;;32.61;65.24;97351.88;5046955;28;20641;-73
2022/07/10 12:36:52;;;;;;;24.13;20.48;;;;;;;32.65;66.13;97357.47;5048270;28;20095;-74
2022/07/10 12:39:40;;;;;;;24.98;20.27;;;;;;;32.65;64.84;97365.78;5031614;28;20072;-74
2022/07/10 12:42:31;;;;;;;22.52;19.45;;;;;;;32.71;64.30;97369.75;5046979;28;20115;-74
2022/07/10 12:45:17;;;;;;;22.85;18.23;;;;;;;32.71;63.91;97364.22;5047652;28;20053;-73
2022/07/10 12:48:06;;;;;;;23.50;19.67;;;;;;;32.67;64.23;97358.66;5047618;28;20132;-74
2022/07/10 12:50:48;;;;;;;28.15;21.33;;;;;;;32.46;65.54;97358.56;5062197;28;20148;-74
2022/07/10 12:53:46;;;;;;;27.13;21.52;;;;;;;32.46;65.79;97370.47;5048083;28;20065;-73
2022/07/10 12:56:38;;;;;;;26.67;21.85;;;;;;;32.52;65.56;97363.38;5038684;28;20060;-73